createdAt,value
2022-10-25T00:00:19.943Z,12.17
2022-10-25T00:02:47.068Z,12.13
2022-10-25T00:05:15.708Z,12.11
2022-10-25T00:07:42.912Z,12.10
2022-10-25T00:10:10.497Z,12.08
2022-10-25T00:12:43.043Z,11.99
2022-10-25T00:15:13.582Z,11.94
2022-10-25T00:17:40.955Z,11.91
2022-10-25T00:20:09.956Z,11.93
2022-10-25T00:22:37.563Z,11.93
2022-10-25T00:25:05.372Z,11.91
2022-10-25T00:27:32.679Z,11.88
2022-10-25T00:30:01.172Z,11.84
2022-10-25T00:32:28.342Z,11.84
2022-10-25T00:34:55.367Z,11.83
2022-10-25T00:37:22.580Z,11.81
2022-10-25T00:39:49.576Z,11.77
2022-10-25T00:42:20.773Z,11.74
2022-10-25T00:44:52.673Z,11.72
2022-10-25T00:47:41.263Z,11.69
2022-10-25T00:50:16.402Z,11.66
2022-10-25T00:52:45.669Z,11.63
2022-10-25T00:55:15.517Z,11.55
2022-10-25T00:57:47.715Z,11.53
2022-10-25T01:00:15.570Z,11.48
2022-10-25T01:02:44.197Z,11.48
2022-10-25T01:05:11.878Z,11.47
2022-10-25T01:07:39.041Z,11.45
2022-10-25T01:10:07.041Z,11.44
2022-10-25T01:12:34.287Z,11.37
2022-10-25T01:15:02.895Z,11.37
2022-10-25T01:17:38.716Z,11.37
2022-10-25T01:20:42.257Z,11.36
2022-10-25T01:23:27.714Z,11.35
2022-10-25T01:26:21.377Z,11.33
2022-10-25T01:29:08.382Z,11.27
2022-10-25T01:31:43.302Z,11.21
2022-10-25T01:34:16.547Z,11.21
2022-10-25T01:36:50.473Z,11.21
2022-10-25T01:39:21.001Z,11.18
2022-10-25T01:42:01.184Z,11.14
2022-10-25T01:47:15.378Z,11.14
2022-10-25T01:49:47.366Z,11.15
2022-10-25T01:52:14.753Z,11.10
2022-10-25T01:54:42.659Z,11.10
2022-10-25T01:57:23.854Z,11.09
2022-10-25T02:00:09.808Z,11.11
2022-10-25T02:03:15.214Z,11.10
2022-10-25T02:05:54.502Z,11.06
2022-10-25T02:08:31.413Z,11.05
2022-10-25T02:11:05.943Z,11.05
2022-10-25T02:13:42.701Z,11.04
2022-10-25T02:16:12.451Z,11.05
2022-10-25T02:18:46.545Z,11.04
2022-10-25T02:21:16.492Z,11.02
2022-10-25T02:23:43.545Z,11.05
2022-10-25T02:26:11.603Z,11.02
2022-10-25T02:28:40.546Z,11.02
2022-10-25T02:31:09.898Z,10.99
2022-10-25T02:33:37.744Z,10.95
2022-10-25T02:36:12.791Z,10.97
2022-10-25T02:38:40.676Z,10.95
2022-10-25T02:41:07.906Z,10.89
2022-10-25T02:43:34.913Z,10.87
2022-10-25T02:46:06.522Z,10.87
2022-10-25T02:48:33.898Z,10.86
2022-10-25T02:51:00.894Z,10.85
2022-10-25T02:53:29.714Z,10.84
2022-10-25T02:56:01.618Z,10.81
2022-10-25T02:58:31.430Z,10.79
2022-10-25T03:00:59.442Z,10.75
2022-10-25T03:03:27.290Z,10.71
2022-10-25T03:05:55.171Z,10.70
2022-10-25T03:08:23.023Z,10.69
2022-10-25T03:10:51.913Z,10.69
2022-10-25T03:13:19.584Z,10.69
2022-10-25T03:15:46.738Z,10.67
2022-10-25T03:18:14.718Z,10.67
2022-10-25T03:20:42.661Z,10.62
2022-10-25T03:23:10.346Z,10.60
2022-10-25T03:25:37.438Z,10.57
2022-10-25T03:28:06.080Z,10.58
2022-10-25T03:30:33.371Z,10.59
2022-10-25T03:33:00.512Z,10.58
2022-10-25T03:35:28.122Z,10.59
2022-10-25T03:37:55.577Z,10.59
2022-10-25T03:40:24.254Z,10.60
2022-10-25T03:42:51.198Z,10.60
2022-10-25T03:45:19.790Z,10.59
2022-10-25T03:47:47.050Z,10.57
2022-10-25T03:50:14.395Z,10.55
2022-10-25T03:52:41.685Z,10.56
2022-10-25T03:55:09.456Z,10.50
2022-10-25T03:57:36.639Z,10.47
2022-10-25T04:00:04.365Z,10.47
2022-10-25T04:02:40.202Z,10.46
2022-10-25T04:05:07.962Z,10.45
2022-10-25T04:07:35.173Z,10.44
2022-10-25T04:10:02.670Z,10.42
2022-10-25T04:12:29.816Z,10.35
2022-10-25T04:14:56.857Z,10.31
2022-10-25T04:17:24.073Z,10.31
2022-10-25T04:19:52.518Z,10.29
2022-10-25T04:22:19.717Z,10.28
2022-10-25T04:24:46.665Z,10.22
2022-10-25T04:27:13.811Z,10.20
2022-10-25T04:29:40.935Z,10.20
2022-10-25T04:32:07.956Z,10.19
2022-10-25T04:34:35.180Z,10.17
2022-10-25T04:37:04.007Z,10.16
2022-10-25T04:39:31.069Z,10.14
2022-10-25T04:41:58.030Z,10.13
2022-10-25T04:44:25.234Z,10.13
2022-10-25T04:46:52.477Z,10.12
2022-10-25T04:49:19.569Z,10.12
2022-10-25T04:51:46.588Z,10.08
2022-10-25T04:54:15.203Z,10.09
2022-10-25T04:56:42.318Z,10.12
2022-10-25T04:59:09.906Z,10.16
2022-10-25T05:01:37.101Z,10.19
2022-10-25T05:04:04.505Z,10.25
2022-10-25T05:06:31.478Z,10.33
2022-10-25T05:08:58.716Z,10.44
2022-10-25T05:11:27.260Z,10.54
2022-10-25T05:13:54.464Z,10.66
2022-10-25T05:16:24.233Z,10.77
2022-10-25T05:18:54.418Z,10.85
2022-10-25T05:21:22.452Z,10.99
2022-10-25T05:23:49.623Z,11.19
2022-10-25T05:26:18.501Z,11.37
2022-10-25T05:28:48.869Z,11.50
2022-10-25T05:31:18.102Z,11.57
2022-10-25T05:33:45.770Z,11.67
2022-10-25T05:36:14.131Z,11.82
2022-10-25T05:38:41.388Z,11.97
2022-10-25T05:41:09.838Z,12.16
2022-10-25T05:43:36.958Z,12.38
2022-10-25T05:46:08.000Z,12.49
2022-10-25T05:48:36.523Z,12.57
2022-10-25T05:51:28.827Z,12.63
2022-10-25T05:54:00.019Z,12.74
2022-10-25T05:56:28.711Z,12.89
2022-10-25T05:58:57.205Z,13.10
2022-10-25T06:01:27.012Z,13.34
2022-10-25T06:03:55.731Z,13.68
2022-10-25T06:06:23.403Z,13.90
2022-10-25T06:08:50.933Z,13.90
2022-10-25T06:11:19.655Z,13.81
2022-10-25T06:13:46.966Z,13.76
2022-10-25T06:16:16.838Z,13.91
2022-10-25T06:18:45.864Z,14.27
2022-10-25T06:21:14.586Z,14.65
2022-10-25T06:23:42.537Z,14.80
2022-10-25T06:26:11.635Z,14.86
2022-10-25T06:28:39.266Z,14.96
2022-10-25T06:31:08.411Z,15.05
2022-10-25T06:33:35.951Z,15.34
2022-10-25T06:36:07.251Z,15.72
2022-10-25T06:38:34.699Z,16.07
2022-10-25T06:41:03.517Z,16.35
2022-10-25T06:43:31.346Z,16.61
2022-10-25T06:45:58.675Z,16.95
2022-10-25T06:48:26.047Z,17.24
2022-10-25T06:51:01.222Z,17.48
2022-10-25T06:53:30.114Z,17.73
2022-10-25T06:56:04.474Z,17.96
2022-10-25T06:58:32.707Z,18.20
2022-10-25T07:01:03.583Z,18.41
2022-10-25T07:03:35.063Z,18.65
2022-10-25T07:06:03.720Z,18.97
2022-10-25T07:08:32.312Z,19.32
2022-10-25T07:10:59.429Z,19.64
2022-10-25T07:13:26.704Z,19.95
2022-10-25T07:15:53.997Z,20.23
2022-10-25T07:18:20.985Z,20.53
2022-10-25T07:20:48.812Z,20.79
2022-10-25T07:23:16.286Z,21.06
2022-10-25T07:25:46.074Z,21.32
2022-10-25T07:28:13.224Z,21.56
2022-10-25T07:30:45.193Z,21.70
2022-10-25T07:33:12.575Z,21.82
2022-10-25T07:35:52.222Z,22.01
2022-10-25T07:38:27.891Z,22.34
2022-10-25T07:41:00.077Z,22.57
2022-10-25T07:43:27.727Z,22.82
2022-10-25T07:45:55.148Z,23.12
2022-10-25T07:48:22.426Z,23.38
2022-10-25T07:50:49.413Z,23.30
2022-10-25T07:53:16.581Z,23.04
2022-10-25T07:55:43.576Z,22.93
2022-10-25T07:58:12.630Z,22.72
2022-10-25T08:00:39.680Z,22.74
2022-10-25T08:03:06.870Z,22.94
2022-10-25T08:05:34.017Z,23.09
2022-10-25T08:08:01.242Z,22.93
2022-10-25T08:10:28.430Z,22.78
2022-10-25T08:12:55.954Z,22.75
2022-10-25T08:15:24.904Z,22.82
2022-10-25T08:17:57.875Z,23.10
2022-10-25T08:20:43.065Z,23.36
2022-10-25T08:23:12.270Z,23.54
2022-10-25T08:25:39.442Z,23.88
2022-10-25T08:28:06.634Z,24.06
2022-10-25T08:30:35.210Z,24.16
2022-10-25T08:33:02.361Z,24.34
2022-10-25T08:35:29.706Z,24.50
2022-10-25T08:38:00.034Z,24.60
2022-10-25T08:40:35.693Z,24.64
2022-10-25T08:43:14.767Z,24.72
2022-10-25T08:45:53.786Z,24.92
2022-10-25T08:48:26.298Z,25.26
2022-10-25T08:50:58.794Z,25.61
2022-10-25T08:53:31.158Z,25.85
2022-10-25T08:56:15.525Z,26.06
2022-10-25T08:58:47.760Z,26.30
2022-10-25T09:01:22.693Z,26.51
2022-10-25T09:03:50.014Z,26.74
2022-10-25T09:06:27.545Z,27.05
2022-10-25T09:09:08.099Z,27.07
2022-10-25T09:11:48.373Z,27.33
2022-10-25T09:14:25.774Z,27.48
2022-10-25T09:17:01.734Z,27.73
2022-10-25T09:19:34.214Z,28.03
2022-10-25T09:22:02.719Z,28.15
2022-10-25T09:24:35.481Z,28.43
2022-10-25T09:27:07.195Z,28.60
2022-10-25T09:29:37.428Z,28.71
2022-10-25T09:32:15.213Z,28.83
2022-10-25T09:34:43.128Z,29.20
2022-10-25T09:37:16.255Z,29.59
2022-10-25T09:39:46.458Z,29.90
2022-10-25T09:42:19.874Z,30.16
2022-10-25T09:44:50.955Z,30.39
2022-10-25T09:47:30.097Z,30.62
2022-10-25T09:50:00.525Z,30.74
2022-10-25T09:52:36.812Z,30.73
2022-10-25T09:55:28.610Z,30.77
2022-10-25T09:57:56.085Z,30.90
2022-10-25T10:00:23.058Z,30.90
2022-10-25T10:02:51.697Z,30.67
2022-10-25T10:05:21.267Z,30.53
2022-10-25T10:07:50.338Z,30.65
2022-10-25T10:10:20.100Z,30.73
2022-10-25T10:12:53.723Z,30.59
2022-10-25T10:15:25.509Z,30.33
2022-10-25T10:18:25.184Z,30.19
2022-10-25T10:21:13.951Z,30.05
2022-10-25T10:23:53.606Z,29.92
2022-10-25T10:26:25.878Z,30.08
2022-10-25T10:29:07.927Z,30.00
2022-10-25T10:31:37.901Z,29.91
2022-10-25T10:34:23.434Z,29.89
2022-10-25T10:37:06.249Z,29.92
2022-10-25T10:39:34.050Z,29.83
2022-10-25T10:42:05.168Z,29.77
2022-10-25T10:44:36.408Z,29.69
2022-10-25T10:47:10.981Z,29.67
2022-10-25T10:49:42.332Z,29.56
2022-10-25T10:52:28.660Z,29.39
2022-10-25T10:54:56.950Z,29.40
2022-10-25T10:57:31.552Z,29.38
2022-10-25T10:59:59.112Z,29.23
2022-10-25T11:02:32.741Z,29.21
2022-10-25T11:05:01.563Z,29.21
2022-10-25T11:07:31.994Z,29.21
2022-10-25T11:10:22.128Z,29.23
2022-10-25T11:13:05.382Z,29.35
2022-10-25T11:15:38.902Z,29.48
2022-10-25T11:18:07.557Z,29.61
2022-10-25T11:20:48.886Z,29.78
2022-10-25T11:23:24.496Z,29.81
2022-10-25T11:25:57.878Z,29.84
2022-10-25T11:28:38.920Z,29.88
2022-10-25T11:31:18.234Z,29.98
2022-10-25T11:33:57.167Z,30.04
2022-10-25T11:36:38.142Z,30.08
2022-10-25T11:39:21.821Z,30.18
2022-10-25T11:41:51.673Z,30.33
2022-10-25T11:44:43.014Z,30.37
2022-10-25T11:47:24.646Z,30.45
2022-10-25T11:50:03.790Z,30.55
2022-10-25T11:52:52.223Z,30.64
2022-10-25T11:55:30.819Z,30.77
2022-10-25T11:58:08.055Z,30.80
2022-10-25T12:00:48.271Z,30.81
2022-10-25T12:03:36.851Z,30.80
2022-10-25T12:06:15.244Z,30.73
2022-10-25T12:08:53.214Z,30.50
2022-10-25T12:11:25.407Z,30.45
2022-10-25T12:13:56.774Z,30.43
2022-10-25T12:16:25.711Z,30.32
2022-10-25T12:19:02.646Z,30.15
2022-10-25T12:21:35.877Z,30.23
2022-10-25T12:24:07.366Z,30.24
2022-10-25T12:26:36.845Z,30.19
2022-10-25T12:29:05.489Z,30.13
2022-10-25T12:31:38.575Z,30.04
2022-10-25T12:34:12.021Z,29.87
2022-10-25T12:36:43.738Z,29.62
2022-10-25T12:39:16.369Z,29.40
2022-10-25T12:41:47.260Z,29.24
2022-10-25T12:44:37.147Z,29.03
2022-10-25T12:47:24.525Z,28.85
2022-10-25T12:50:04.200Z,28.72
2022-10-25T12:52:34.997Z,28.59
2022-10-25T12:55:32.438Z,28.49
2022-10-25T12:58:23.881Z,28.35
2022-10-25T13:01:06.090Z,28.49
2022-10-25T13:04:20.747Z,28.67
2022-10-25T13:06:50.823Z,28.81
2022-10-25T13:09:22.216Z,28.94
2022-10-25T13:11:59.573Z,28.99
2022-10-25T13:14:28.881Z,28.90
2022-10-25T13:17:28.787Z,28.86
2022-10-25T13:20:34.252Z,28.74
2022-10-25T13:23:08.059Z,28.67
2022-10-25T13:26:04.336Z,28.60
2022-10-25T13:28:44.640Z,28.51
2022-10-25T13:31:43.477Z,28.41
2022-10-25T13:34:31.110Z,28.34
2022-10-25T13:36:59.760Z,28.35
2022-10-25T13:39:29.918Z,28.31
2022-10-25T13:42:02.798Z,28.21
2022-10-25T13:44:31.468Z,28.14
2022-10-25T13:46:59.033Z,28.07
2022-10-25T13:49:33.059Z,28.00
2022-10-25T13:52:02.037Z,27.94
2022-10-25T13:54:43.751Z,27.81
2022-10-25T13:57:43.926Z,27.65
2022-10-25T14:00:28.359Z,27.58
2022-10-25T14:03:23.326Z,27.52
2022-10-25T14:06:13.886Z,27.44
2022-10-25T14:08:50.023Z,27.32
2022-10-25T14:11:21.084Z,27.24
2022-10-25T14:13:53.293Z,27.14
2022-10-25T14:16:26.653Z,27.01
2022-10-25T14:18:56.325Z,26.89
2022-10-25T14:21:24.940Z,26.78
2022-10-25T14:23:52.446Z,26.68
2022-10-25T14:26:21.329Z,26.59
2022-10-25T14:28:48.651Z,26.47
2022-10-25T14:31:20.000Z,26.35
2022-10-25T14:33:52.790Z,26.22
2022-10-25T14:36:28.204Z,26.10
2022-10-25T14:38:57.428Z,25.99
2022-10-25T14:41:26.218Z,25.90
2022-10-25T14:43:54.399Z,25.79
2022-10-25T14:46:22.410Z,25.68
2022-10-25T14:48:58.446Z,25.56
2022-10-25T14:51:28.417Z,25.45
2022-10-25T14:54:00.267Z,25.34
2022-10-25T14:56:30.673Z,25.23
2022-10-25T14:58:59.109Z,25.16
2022-10-25T15:01:26.560Z,25.07
2022-10-25T15:03:58.228Z,24.97
2022-10-25T15:06:28.383Z,24.89
2022-10-25T15:09:14.931Z,24.83
2022-10-25T15:12:03.955Z,24.67
2022-10-25T15:14:31.222Z,24.57
2022-10-25T15:17:02.226Z,24.45
2022-10-25T15:19:30.969Z,24.34
2022-10-25T15:22:07.801Z,24.23
2022-10-25T15:24:43.854Z,24.08
2022-10-25T15:27:26.022Z,23.82
2022-10-25T15:29:53.421Z,23.66
2022-10-25T15:32:22.098Z,23.52
2022-10-25T15:34:52.619Z,23.43
2022-10-25T15:37:21.279Z,23.37
2022-10-25T15:39:49.681Z,23.25
2022-10-25T15:42:17.087Z,23.16
2022-10-25T15:44:44.402Z,23.06
2022-10-25T15:47:27.357Z,22.99
2022-10-25T15:49:56.269Z,22.89
2022-10-25T15:52:23.658Z,22.75
2022-10-25T15:54:50.701Z,22.69
2022-10-25T15:57:17.937Z,22.62
2022-10-25T15:59:45.320Z,22.53
2022-10-25T16:02:19.029Z,22.46
2022-10-25T16:04:46.976Z,22.44
2022-10-25T16:07:16.357Z,22.36
2022-10-25T16:09:43.736Z,22.31
2022-10-25T16:12:16.771Z,22.27
2022-10-25T16:14:43.965Z,22.20
2022-10-25T16:17:15.472Z,22.15
2022-10-25T16:19:42.546Z,22.07
2022-10-25T16:22:09.575Z,21.99
2022-10-25T16:24:38.378Z,21.97
2022-10-25T16:27:05.486Z,21.88
2022-10-25T16:29:32.475Z,21.82
2022-10-25T16:31:59.519Z,21.75
2022-10-25T16:34:26.515Z,21.61
2022-10-25T16:36:53.948Z,21.51
2022-10-25T16:39:21.303Z,21.43
2022-10-25T16:41:50.082Z,21.32
2022-10-25T16:44:19.308Z,21.25
2022-10-25T16:46:46.555Z,21.16
2022-10-25T16:49:13.669Z,21.04
2022-10-25T16:51:41.144Z,20.96
2022-10-25T16:54:08.502Z,20.86
2022-10-25T16:56:35.756Z,20.78
2022-10-25T16:59:04.264Z,20.69
2022-10-25T17:01:34.332Z,20.61
2022-10-25T17:04:02.739Z,20.57
2022-10-25T17:06:41.634Z,20.56
2022-10-25T17:09:09.867Z,20.53
2022-10-25T17:11:36.834Z,20.51
2022-10-25T17:14:05.679Z,20.52
2022-10-25T17:16:33.500Z,20.47
2022-10-25T17:19:00.551Z,20.47
2022-10-25T17:21:28.395Z,20.53
2022-10-25T17:23:56.261Z,20.66
2022-10-25T17:26:23.362Z,20.75
2022-10-25T17:28:50.446Z,20.83
2022-10-25T17:31:18.817Z,20.90
2022-10-25T17:33:46.370Z,20.97
2022-10-25T17:36:15.831Z,21.01
2022-10-25T17:38:43.275Z,21.09
2022-10-25T17:41:11.146Z,21.15
2022-10-25T17:43:40.162Z,21.18
2022-10-25T17:46:09.193Z,21.23
2022-10-25T17:48:37.708Z,21.28
2022-10-25T17:51:06.674Z,21.29
2022-10-25T17:53:34.533Z,21.31
2022-10-25T17:56:10.883Z,21.32
2022-10-25T17:58:38.125Z,21.30
2022-10-25T18:01:05.834Z,21.29
2022-10-25T18:03:33.055Z,21.31
2022-10-25T18:06:02.666Z,21.28
2022-10-25T18:08:29.823Z,21.23
2022-10-25T18:10:56.891Z,21.21
2022-10-25T18:13:25.072Z,21.18
2022-10-25T18:15:52.776Z,21.17
2022-10-25T18:18:20.364Z,21.13
2022-10-25T18:20:51.416Z,21.11
2022-10-25T18:23:20.311Z,21.10
2022-10-25T18:25:51.905Z,21.08
2022-10-25T18:28:19.062Z,21.07
2022-10-25T18:30:46.216Z,21.04
2022-10-25T18:33:14.935Z,21.02
2022-10-25T18:35:42.271Z,20.96
2022-10-25T18:38:09.293Z,20.89
2022-10-25T18:40:38.263Z,20.84
2022-10-25T18:43:05.278Z,20.77
2022-10-25T18:45:35.822Z,20.72
2022-10-25T18:48:03.111Z,20.67
2022-10-25T18:50:30.215Z,20.58
2022-10-25T18:52:57.499Z,20.54
2022-10-25T18:55:26.695Z,20.48
2022-10-25T18:57:55.868Z,20.43
2022-10-25T19:00:26.423Z,20.39
2022-10-25T19:02:54.095Z,20.40
2022-10-25T19:05:21.475Z,20.39
2022-10-25T19:07:49.065Z,20.37
2022-10-25T19:10:16.398Z,20.35
2022-10-25T19:12:43.409Z,20.32
2022-10-25T19:15:13.162Z,20.28
2022-10-25T19:17:40.342Z,20.25
2022-10-25T19:20:07.751Z,20.20
2022-10-25T19:22:34.970Z,20.15
2022-10-25T19:25:02.272Z,20.10
2022-10-25T19:27:29.774Z,20.02
2022-10-25T19:29:57.824Z,19.92
2022-10-25T19:32:26.367Z,19.81
2022-10-25T19:34:53.529Z,19.71
2022-10-25T19:37:20.670Z,19.61
2022-10-25T19:39:47.869Z,19.53
2022-10-25T19:42:15.133Z,19.43
2022-10-25T19:44:42.182Z,19.36
2022-10-25T19:47:09.287Z,19.28
2022-10-25T19:49:37.653Z,19.21
2022-10-25T19:52:04.954Z,19.12
2022-10-25T19:54:31.966Z,19.06
2022-10-25T19:56:58.948Z,19.02
2022-10-25T19:59:26.274Z,18.92
2022-10-25T20:01:53.607Z,18.84
2022-10-25T20:04:20.734Z,18.75
2022-10-25T20:06:49.175Z,18.68
2022-10-25T20:09:16.111Z,18.62
2022-10-25T20:11:43.380Z,18.56
2022-10-25T20:14:10.487Z,18.46
2022-10-25T20:16:37.591Z,18.42
2022-10-25T20:19:04.985Z,18.41
2022-10-25T20:21:33.695Z,18.41
2022-10-25T20:24:04.351Z,18.43
2022-10-25T20:26:33.442Z,18.46
2022-10-25T20:29:02.257Z,18.52
2022-10-25T20:31:31.001Z,18.57
2022-10-25T20:33:58.381Z,18.61
2022-10-25T20:36:25.900Z,18.65
2022-10-25T20:38:53.128Z,18.66
2022-10-25T20:41:23.396Z,18.65
2022-10-25T20:43:52.165Z,18.69
2022-10-25T20:46:21.055Z,18.74
2022-10-25T20:48:48.408Z,18.75
2022-10-25T20:51:16.291Z,18.74
2022-10-25T20:53:44.280Z,18.74
2022-10-25T20:56:12.514Z,18.72
2022-10-25T20:58:41.122Z,18.72
2022-10-25T21:01:09.037Z,18.75
2022-10-25T21:03:36.390Z,18.78
2022-10-25T21:06:05.790Z,18.81
2022-10-25T21:08:33.726Z,18.85
2022-10-25T21:11:03.308Z,18.85
2022-10-25T21:13:31.876Z,18.89
2022-10-25T21:16:05.404Z,18.93
2022-10-25T21:18:32.426Z,18.96
2022-10-25T21:21:01.379Z,18.98
2022-10-25T21:23:28.735Z,18.97
2022-10-25T21:25:59.063Z,18.95
2022-10-25T21:28:26.536Z,18.94
2022-10-25T21:30:53.758Z,18.93
2022-10-25T21:33:22.199Z,18.90
2022-10-25T21:35:49.306Z,18.88
2022-10-25T21:38:16.554Z,18.84
2022-10-25T21:40:43.557Z,18.82
2022-10-25T21:43:10.607Z,18.77
2022-10-25T21:45:41.876Z,18.72
2022-10-25T21:48:09.171Z,18.65
2022-10-25T21:50:37.571Z,18.61
2022-10-25T21:53:04.770Z,18.57
2022-10-25T21:55:31.875Z,18.51
2022-10-25T21:57:59.134Z,18.43
2022-10-25T22:00:26.584Z,18.35
2022-10-25T22:02:53.681Z,18.30
2022-10-25T22:05:20.751Z,18.25
2022-10-25T22:07:49.431Z,18.20
2022-10-25T22:10:17.725Z,18.16
2022-10-25T22:12:44.803Z,18.12
2022-10-25T22:15:11.889Z,18.08
2022-10-25T22:17:39.194Z,18.03
2022-10-25T22:20:07.461Z,18.01
2022-10-25T22:22:34.884Z,18.00
2022-10-25T22:25:03.702Z,17.99
2022-10-25T22:27:30.889Z,17.96
2022-10-25T22:29:57.886Z,17.92
2022-10-25T22:32:25.025Z,17.87
2022-10-25T22:34:51.958Z,17.86
2022-10-25T22:37:19.027Z,17.85
2022-10-25T22:39:46.089Z,17.83
2022-10-25T22:42:14.977Z,17.81
2022-10-25T22:44:41.979Z,17.80
2022-10-25T22:47:09.062Z,17.77
2022-10-25T22:49:36.433Z,17.77
2022-10-25T22:52:03.773Z,17.75
2022-10-25T22:54:30.841Z,17.73
2022-10-25T22:56:58.118Z,17.73
2022-10-25T22:59:26.604Z,17.70
2022-10-25T23:01:53.662Z,17.70
2022-10-25T23:04:20.884Z,17.71
2022-10-25T23:06:48.105Z,17.69
2022-10-25T23:09:15.094Z,17.66
2022-10-25T23:11:42.290Z,17.66
2022-10-25T23:14:14.694Z,17.66
2022-10-25T23:16:46.731Z,17.65
2022-10-25T23:19:13.879Z,17.65
2022-10-25T23:21:40.861Z,17.63
2022-10-25T23:24:09.282Z,17.62
2022-10-25T23:26:39.239Z,17.61
2022-10-25T23:29:06.282Z,17.58
2022-10-25T23:31:34.343Z,17.54
2022-10-25T23:34:02.837Z,17.50
2022-10-25T23:36:37.771Z,17.44
2022-10-25T23:39:07.511Z,17.40
2022-10-25T23:41:34.789Z,17.37
2022-10-25T23:44:01.998Z,17.36
2022-10-25T23:46:29.201Z,17.33
2022-10-25T23:48:56.353Z,17.31
2022-10-25T23:51:24.894Z,17.28
2022-10-25T23:53:52.140Z,17.24
2022-10-25T23:56:19.394Z,17.21
2022-10-25T23:58:50.445Z,17.18
